createdAt,value
2018-07-23T00:01:16.513Z,24.35
2018-07-23T00:03:42.817Z,24.33
2018-07-23T00:06:09.124Z,24.33
2018-07-23T00:08:35.435Z,24.31
2018-07-23T00:11:01.792Z,24.28
2018-07-23T00:13:28.108Z,24.27
2018-07-23T00:15:54.420Z,24.30
2018-07-23T00:18:20.735Z,24.32
2018-07-23T00:20:47.043Z,24.36
2018-07-23T00:23:13.350Z,24.39
2018-07-23T00:25:39.664Z,24.34
2018-07-23T00:28:05.990Z,24.31
2018-07-23T00:30:32.347Z,24.27
2018-07-23T00:32:58.668Z,24.28
2018-07-23T00:35:24.990Z,24.24
2018-07-23T00:37:51.301Z,24.22
2018-07-23T00:40:17.657Z,24.22
2018-07-23T00:42:43.976Z,24.22
2018-07-23T00:45:10.344Z,24.19
2018-07-23T00:47:36.652Z,24.20
2018-07-23T00:50:02.960Z,24.16
2018-07-23T00:52:29.278Z,24.14
2018-07-23T00:54:55.592Z,24.13
2018-07-23T00:57:21.916Z,24.10
2018-07-23T00:59:48.270Z,24.06
2018-07-23T01:02:14.583Z,24.03
2018-07-23T01:04:40.896Z,24.05
2018-07-23T01:07:07.207Z,24.03
2018-07-23T01:09:33.514Z,24.01
2018-07-23T01:11:59.828Z,23.96
2018-07-23T01:14:26.182Z,23.95
2018-07-23T01:16:52.488Z,23.92
2018-07-23T01:19:18.799Z,23.94
2018-07-23T01:21:45.109Z,23.92
2018-07-23T01:24:11.418Z,23.92
2018-07-23T01:26:37.722Z,23.89
2018-07-23T01:29:04.042Z,23.86
2018-07-23T01:31:30.356Z,23.83
2018-07-23T01:33:56.662Z,23.85
2018-07-23T01:36:22.994Z,23.85
2018-07-23T01:38:49.317Z,23.81
2018-07-23T01:41:15.618Z,23.71
2018-07-23T01:43:41.929Z,23.66
2018-07-23T01:46:08.241Z,23.67
2018-07-23T01:48:34.562Z,23.71
2018-07-23T01:51:00.904Z,23.74
2018-07-23T01:53:27.210Z,23.77
2018-07-23T01:55:53.520Z,23.72
2018-07-23T01:58:19.837Z,23.63
2018-07-23T02:00:46.155Z,23.63
2018-07-23T02:03:12.470Z,23.58
2018-07-23T02:05:38.780Z,23.56
2018-07-23T02:08:05.100Z,23.49
2018-07-23T02:10:31.409Z,23.40
2018-07-23T02:12:57.726Z,23.39
2018-07-23T02:15:24.042Z,23.39
2018-07-23T02:17:50.399Z,23.42
2018-07-23T02:20:16.667Z,23.34
2018-07-23T02:22:42.977Z,23.33
2018-07-23T02:25:09.284Z,23.32
2018-07-23T02:27:35.603Z,23.32
2018-07-23T02:30:01.934Z,23.33
2018-07-23T02:32:28.251Z,23.36
2018-07-23T02:34:54.611Z,23.36
2018-07-23T02:37:20.929Z,23.36
2018-07-23T02:39:47.245Z,23.36
2018-07-23T02:42:13.602Z,23.34
2018-07-23T02:44:39.923Z,23.30
2018-07-23T02:47:06.248Z,23.24
2018-07-23T02:49:32.569Z,23.24
2018-07-23T02:51:58.881Z,23.26
2018-07-23T02:54:25.202Z,23.21
2018-07-23T02:56:51.562Z,23.20
2018-07-23T02:59:17.874Z,23.17
2018-07-23T03:01:44.192Z,23.14
2018-07-23T03:04:10.501Z,23.12
2018-07-23T03:06:36.818Z,23.10
2018-07-23T03:09:03.133Z,23.09
2018-07-23T03:11:29.449Z,23.05
2018-07-23T03:13:55.762Z,23.05
2018-07-23T03:16:22.075Z,22.97
2018-07-23T03:18:48.382Z,22.91
2018-07-23T03:21:14.692Z,22.84
2018-07-23T03:23:40.995Z,22.73
2018-07-23T03:26:07.308Z,22.66
2018-07-23T03:28:33.619Z,22.69
2018-07-23T03:30:59.935Z,22.70
2018-07-23T03:33:26.249Z,22.74
2018-07-23T03:35:52.564Z,22.80
2018-07-23T03:38:18.881Z,22.78
2018-07-23T03:40:45.198Z,22.86
2018-07-23T03:43:11.507Z,22.84
2018-07-23T03:45:37.819Z,22.72
2018-07-23T03:48:04.137Z,22.61
2018-07-23T03:50:30.450Z,22.56
2018-07-23T03:52:56.771Z,22.65
2018-07-23T03:55:23.090Z,22.72
2018-07-23T03:57:49.409Z,22.76
2018-07-23T04:00:15.724Z,22.68
2018-07-23T04:02:42.034Z,22.63
2018-07-23T04:05:08.352Z,22.59
2018-07-23T04:07:34.668Z,22.58
2018-07-23T04:10:01.034Z,22.51
2018-07-23T04:12:27.299Z,22.59
2018-07-23T04:14:53.615Z,22.60
2018-07-23T04:17:19.931Z,22.65
2018-07-23T04:19:46.257Z,22.73
2018-07-23T04:22:12.569Z,22.74
2018-07-23T04:24:38.877Z,22.77
2018-07-23T04:27:05.185Z,22.75
2018-07-23T04:29:31.502Z,22.99
2018-07-23T04:31:57.814Z,23.21
2018-07-23T04:34:24.132Z,23.44
2018-07-23T04:36:50.481Z,23.63
2018-07-23T04:39:16.792Z,23.73
2018-07-23T04:41:43.096Z,23.78
2018-07-23T04:44:09.413Z,23.71
2018-07-23T04:46:35.720Z,23.64
2018-07-23T04:49:02.038Z,23.60
2018-07-23T04:51:28.347Z,23.57
2018-07-23T04:53:54.702Z,23.56
2018-07-23T04:56:21.011Z,23.59
2018-07-23T04:58:47.363Z,23.57
2018-07-23T05:01:13.687Z,23.58
2018-07-23T05:03:40.011Z,23.59
2018-07-23T05:06:06.325Z,23.61
2018-07-23T05:08:32.647Z,23.62
2018-07-23T05:10:58.988Z,23.66
2018-07-23T05:13:25.298Z,23.69
2018-07-23T05:15:51.628Z,23.71
2018-07-23T05:18:17.921Z,23.75
2018-07-23T05:20:44.244Z,23.76
2018-07-23T05:23:10.561Z,23.78
2018-07-23T05:25:36.873Z,23.78
2018-07-23T05:28:03.195Z,23.82
2018-07-23T05:30:29.504Z,23.86
2018-07-23T05:32:55.826Z,23.91
2018-07-23T05:35:22.147Z,23.94
2018-07-23T05:37:48.466Z,23.98
2018-07-23T05:40:14.789Z,24.01
2018-07-23T05:42:41.109Z,24.08
2018-07-23T05:45:07.423Z,24.17
2018-07-23T05:47:33.738Z,24.25
2018-07-23T05:50:00.049Z,24.34
2018-07-23T05:52:26.361Z,24.44
2018-07-23T05:54:52.682Z,24.52
2018-07-23T05:57:18.991Z,24.63
2018-07-23T05:59:45.298Z,24.69
2018-07-23T06:02:11.608Z,24.77
2018-07-23T06:04:37.960Z,24.83
2018-07-23T06:07:04.352Z,24.86
2018-07-23T06:09:30.581Z,24.89
2018-07-23T06:11:56.896Z,24.97
2018-07-23T06:14:23.216Z,25.07
2018-07-23T06:16:49.529Z,25.15
2018-07-23T06:19:15.844Z,25.23
2018-07-23T06:21:42.158Z,25.31
2018-07-23T06:24:08.476Z,25.38
2018-07-23T06:26:34.820Z,25.47
2018-07-23T06:29:01.133Z,25.56
2018-07-23T06:31:27.456Z,25.63
2018-07-23T06:33:53.830Z,25.72
2018-07-23T06:36:20.093Z,25.81
2018-07-23T06:38:46.427Z,25.90
2018-07-23T06:41:12.743Z,25.98
2018-07-23T06:43:39.052Z,26.06
2018-07-23T06:46:05.364Z,26.14
2018-07-23T06:48:31.674Z,26.18
2018-07-23T06:50:57.990Z,26.21
2018-07-23T06:53:24.312Z,26.32
2018-07-23T06:55:50.628Z,26.41
2018-07-23T06:58:16.936Z,26.46
2018-07-23T07:00:43.304Z,26.52
2018-07-23T07:03:09.613Z,26.60
2018-07-23T07:05:35.869Z,26.68
2018-07-23T07:08:02.221Z,26.75
2018-07-23T07:10:28.533Z,26.82
2018-07-23T07:12:54.851Z,26.90
2018-07-23T07:15:21.235Z,26.96
2018-07-23T07:17:47.543Z,27.04
2018-07-23T07:20:13.852Z,27.13
2018-07-23T07:22:40.170Z,27.17
2018-07-23T07:25:06.487Z,27.28
2018-07-23T07:27:32.869Z,27.35
2018-07-23T07:29:59.203Z,27.41
2018-07-23T07:32:25.522Z,27.49
2018-07-23T07:34:51.884Z,27.58
2018-07-23T07:37:18.203Z,27.65
2018-07-23T07:39:44.531Z,27.70
2018-07-23T07:42:10.823Z,27.74
2018-07-23T07:44:37.143Z,27.80
2018-07-23T07:47:03.462Z,27.87
2018-07-23T07:49:29.779Z,27.94
2018-07-23T07:51:56.101Z,28.02
2018-07-23T07:54:22.488Z,28.10
2018-07-23T07:56:48.846Z,28.18
2018-07-23T07:59:15.198Z,28.25
2018-07-23T08:01:41.501Z,28.32
2018-07-23T08:04:07.812Z,28.39
2018-07-23T08:06:34.177Z,28.45
2018-07-23T08:09:00.497Z,28.52
2018-07-23T08:11:26.852Z,28.59
2018-07-23T08:13:53.169Z,28.66
2018-07-23T08:16:19.491Z,28.73
2018-07-23T08:18:45.800Z,28.79
2018-07-23T08:21:12.112Z,28.85
2018-07-23T08:23:38.420Z,28.90
2018-07-23T08:26:04.775Z,28.97
2018-07-23T08:28:31.095Z,29.03
2018-07-23T08:30:57.399Z,29.08
2018-07-23T08:33:23.713Z,29.16
2018-07-23T08:35:50.032Z,29.19
2018-07-23T08:38:16.394Z,29.24
2018-07-23T08:40:42.704Z,29.33
2018-07-23T08:43:09.060Z,29.40
2018-07-23T08:45:35.336Z,29.46
2018-07-23T08:48:01.643Z,29.54
2018-07-23T08:50:27.971Z,29.59
2018-07-23T08:52:54.282Z,29.62
2018-07-23T08:55:20.592Z,29.67
2018-07-23T08:57:46.905Z,29.74
2018-07-23T09:00:13.263Z,29.80
2018-07-23T09:02:39.576Z,29.75
2018-07-23T09:05:05.888Z,29.81
2018-07-23T09:07:32.195Z,29.87
2018-07-23T09:09:58.515Z,29.95
2018-07-23T09:12:24.828Z,30.03
2018-07-23T09:14:51.206Z,30.12
2018-07-23T09:17:17.582Z,30.19
2018-07-23T09:19:43.891Z,30.30
2018-07-23T09:22:10.257Z,30.39
2018-07-23T09:24:36.529Z,30.50
2018-07-23T09:27:02.845Z,30.60
2018-07-23T09:29:29.161Z,30.73
2018-07-23T09:31:55.476Z,30.82
2018-07-23T09:34:21.793Z,30.92
2018-07-23T09:36:48.106Z,31.03
2018-07-23T09:39:14.426Z,31.12
2018-07-23T09:41:40.736Z,31.13
2018-07-23T09:44:07.054Z,31.15
2018-07-23T09:46:33.368Z,31.14
2018-07-23T09:48:59.726Z,31.06
2018-07-23T09:51:26.082Z,31.04
2018-07-23T09:53:52.364Z,30.98
2018-07-23T09:56:18.722Z,30.75
2018-07-23T09:58:45.031Z,30.53
2018-07-23T10:01:11.345Z,30.30
2018-07-23T10:03:37.721Z,30.04
2018-07-23T10:06:03.976Z,29.93
2018-07-23T10:08:30.293Z,29.77
2018-07-23T10:10:56.654Z,29.62
2018-07-23T10:13:22.992Z,29.51
2018-07-23T10:15:49.306Z,29.41
2018-07-23T10:18:15.626Z,29.31
2018-07-23T10:20:41.935Z,29.21
2018-07-23T10:23:08.249Z,29.17
2018-07-23T10:25:34.560Z,29.07
2018-07-23T10:28:00.876Z,29.02
2018-07-23T10:30:27.192Z,28.95
2018-07-23T10:32:53.545Z,28.87
2018-07-23T10:35:19.856Z,28.80
2018-07-23T10:37:46.162Z,28.65
2018-07-23T10:40:12.472Z,28.57
2018-07-23T10:42:38.781Z,28.48
2018-07-23T10:45:05.103Z,28.41
2018-07-23T10:47:31.412Z,28.26
2018-07-23T10:49:57.720Z,28.15
2018-07-23T10:52:24.033Z,28.01
2018-07-23T10:54:50.356Z,27.89
2018-07-23T10:57:16.722Z,27.77
2018-07-23T10:59:42.980Z,27.61
2018-07-23T11:02:09.296Z,27.51
2018-07-23T11:04:35.608Z,27.42
2018-07-23T11:07:01.919Z,27.39
2018-07-23T11:09:28.226Z,27.36
2018-07-23T11:11:54.533Z,27.31
2018-07-23T11:14:20.847Z,27.25
2018-07-23T11:16:47.156Z,27.23
2018-07-23T11:19:13.513Z,27.11
2018-07-23T11:21:39.777Z,27.04
2018-07-23T11:24:06.129Z,26.96
2018-07-23T11:26:32.407Z,26.88
2018-07-23T11:28:58.715Z,26.85
2018-07-23T11:31:25.026Z,26.84
2018-07-23T11:33:51.337Z,26.84
2018-07-23T11:36:17.650Z,26.78
2018-07-23T11:38:43.968Z,26.76
2018-07-23T11:41:10.276Z,26.72
2018-07-23T11:43:36.587Z,26.70
2018-07-23T11:46:02.949Z,26.75
2018-07-23T11:48:29.251Z,26.84
2018-07-23T11:50:55.566Z,27.00
2018-07-23T11:53:21.892Z,27.10
2018-07-23T11:55:48.195Z,27.10
2018-07-23T11:58:14.543Z,27.11
2018-07-23T12:00:40.860Z,27.16
2018-07-23T12:03:07.168Z,27.16
2018-07-23T12:05:33.475Z,27.11
2018-07-23T12:07:59.803Z,27.10
2018-07-23T12:10:26.115Z,27.08
2018-07-23T12:12:52.428Z,27.02
2018-07-23T12:15:18.735Z,26.97
2018-07-23T12:17:45.059Z,26.96
2018-07-23T12:20:14.199Z,26.95
2018-07-23T12:22:40.511Z,26.96
2018-07-23T12:25:06.825Z,26.98
2018-07-23T12:27:33.134Z,27.01
2018-07-23T12:29:59.444Z,27.03
2018-07-23T12:32:25.809Z,27.11
2018-07-23T12:34:52.067Z,27.17
2018-07-23T12:37:18.420Z,27.25
2018-07-23T12:39:44.827Z,27.31
2018-07-23T12:42:11.102Z,27.38
2018-07-23T12:44:37.416Z,27.47
2018-07-23T12:47:03.736Z,27.49
2018-07-23T12:49:30.049Z,27.54
2018-07-23T12:51:56.356Z,27.59
2018-07-23T12:54:22.685Z,27.61
2018-07-23T12:56:48.997Z,27.65
2018-07-23T12:59:15.343Z,27.71
2018-07-23T13:01:41.654Z,27.71
2018-07-23T13:04:07.973Z,27.72
2018-07-23T13:06:34.288Z,27.69
2018-07-23T13:09:00.602Z,27.68
2018-07-23T13:11:26.914Z,27.64
2018-07-23T13:13:53.253Z,27.65
2018-07-23T13:16:19.532Z,27.66
2018-07-23T13:18:45.839Z,27.67
2018-07-23T13:21:12.162Z,27.72
2018-07-23T13:23:38.472Z,27.72
2018-07-23T13:26:04.801Z,27.71
2018-07-23T13:28:31.121Z,27.68
2018-07-23T13:30:57.438Z,27.64
2018-07-23T13:33:23.768Z,27.55
2018-07-23T13:35:50.076Z,27.45
2018-07-23T13:38:16.455Z,27.40
2018-07-23T13:40:42.748Z,27.32
2018-07-23T13:43:09.055Z,27.27
2018-07-23T13:45:35.374Z,27.23
2018-07-23T13:48:01.686Z,27.25
2018-07-23T13:50:27.996Z,27.30
2018-07-23T13:52:54.314Z,27.31
2018-07-23T13:55:20.640Z,27.26
2018-07-23T13:57:46.953Z,27.25
2018-07-23T14:00:13.310Z,27.22
2018-07-23T14:02:39.633Z,27.14
2018-07-23T14:05:05.949Z,27.07
2018-07-23T14:07:32.263Z,27.04
2018-07-23T14:09:58.578Z,27.03
2018-07-23T14:12:24.895Z,27.01
2018-07-23T14:14:51.207Z,26.94
2018-07-23T14:17:17.517Z,26.84
2018-07-23T14:19:43.835Z,26.73
2018-07-23T14:22:10.146Z,26.61
2018-07-23T14:24:36.458Z,26.49
2018-07-23T14:27:02.772Z,26.34
2018-07-23T14:29:29.087Z,26.31
2018-07-23T14:31:55.404Z,26.36
2018-07-23T14:34:21.723Z,26.34
2018-07-23T14:36:48.056Z,26.26
2018-07-23T14:39:14.374Z,26.20
2018-07-23T14:41:40.686Z,26.11
2018-07-23T14:44:06.998Z,26.00
2018-07-23T14:46:33.323Z,25.96
2018-07-23T14:48:59.627Z,25.97
2018-07-23T14:51:25.946Z,25.93
2018-07-23T14:53:52.265Z,25.87
2018-07-23T14:56:18.583Z,25.88
2018-07-23T14:58:44.891Z,25.92
2018-07-23T15:01:11.204Z,25.95
2018-07-23T15:03:37.520Z,25.94
2018-07-23T15:06:03.832Z,25.97
2018-07-23T15:08:30.167Z,25.96
2018-07-23T15:10:56.518Z,25.92
2018-07-23T15:13:22.828Z,25.88
2018-07-23T15:15:49.179Z,25.85
2018-07-23T15:18:15.505Z,25.82
2018-07-23T15:20:41.858Z,25.80
2018-07-23T15:23:08.225Z,25.82
2018-07-23T15:25:34.537Z,25.80
2018-07-23T15:28:00.863Z,25.79
2018-07-23T15:30:27.236Z,25.76
2018-07-23T15:32:53.627Z,25.77
2018-07-23T15:35:19.895Z,25.81
2018-07-23T15:37:46.208Z,25.84
2018-07-23T15:40:12.520Z,25.83
2018-07-23T15:42:38.896Z,25.84
2018-07-23T15:45:05.294Z,25.78
2018-07-23T15:47:31.523Z,25.73
2018-07-23T15:49:57.845Z,25.73
2018-07-23T15:52:24.172Z,25.73
2018-07-23T15:54:50.493Z,25.73
2018-07-23T15:57:16.810Z,25.59
2018-07-23T15:59:43.142Z,25.53
2018-07-23T16:02:09.455Z,25.52
2018-07-23T16:04:35.755Z,25.52
2018-07-23T16:07:02.063Z,25.47
2018-07-23T16:09:28.375Z,25.45
2018-07-23T16:11:55.082Z,25.43
2018-07-23T16:14:21.394Z,25.38
2018-07-23T16:16:47.706Z,25.41
2018-07-23T16:19:14.025Z,25.41
2018-07-23T16:21:40.383Z,25.46
2018-07-23T16:24:06.696Z,25.37
2018-07-23T16:26:33.012Z,25.32
2018-07-23T16:28:59.327Z,25.44
2018-07-23T16:31:25.683Z,25.34
2018-07-23T16:33:52.002Z,25.24
2018-07-23T16:36:18.353Z,25.08
2018-07-23T16:38:44.731Z,24.94
2018-07-23T16:41:11.039Z,24.87
2018-07-23T16:43:37.396Z,24.87
2018-07-23T16:46:03.704Z,24.89
2018-07-23T16:48:30.055Z,24.99
2018-07-23T16:50:56.402Z,25.16
2018-07-23T16:53:22.656Z,25.46
2018-07-23T16:55:48.981Z,25.67
2018-07-23T16:58:15.314Z,25.82
2018-07-23T17:00:41.623Z,25.87
2018-07-23T17:03:07.963Z,25.83
2018-07-23T17:05:34.317Z,25.70
2018-07-23T17:08:00.586Z,25.59
2018-07-23T17:10:26.895Z,25.51
2018-07-23T17:12:53.225Z,25.46
2018-07-23T17:15:19.543Z,25.38
2018-07-23T17:17:45.918Z,25.36
2018-07-23T17:20:12.169Z,25.33
2018-07-23T17:22:38.490Z,25.33
2018-07-23T17:25:04.802Z,25.32
2018-07-23T17:27:31.107Z,25.21
2018-07-23T17:29:57.419Z,25.11
2018-07-23T17:32:23.731Z,25.07
2018-07-23T17:34:50.055Z,25.01
2018-07-23T17:37:16.380Z,24.92
2018-07-23T17:39:42.730Z,24.89
2018-07-23T17:42:09.079Z,25.02
2018-07-23T17:44:35.433Z,25.29
2018-07-23T17:47:01.784Z,25.47
2018-07-23T17:49:28.095Z,25.45
2018-07-23T17:51:54.422Z,25.31
2018-07-23T17:54:20.744Z,25.29
2018-07-23T17:56:47.052Z,25.27
2018-07-23T17:59:13.367Z,25.36
2018-07-23T18:01:39.683Z,25.46
2018-07-23T18:04:05.997Z,25.48
2018-07-23T18:06:32.400Z,25.59
2018-07-23T18:08:58.677Z,25.66
2018-07-23T18:11:25.087Z,25.64
2018-07-23T18:13:51.313Z,25.55
2018-07-23T18:16:17.619Z,25.51
2018-07-23T18:18:43.950Z,25.55
2018-07-23T18:21:10.273Z,25.51
2018-07-23T18:23:36.627Z,25.43
2018-07-23T18:26:02.920Z,25.50
2018-07-23T18:28:29.296Z,25.57
2018-07-23T18:30:55.539Z,25.62
2018-07-23T18:33:21.871Z,25.62
2018-07-23T18:35:48.200Z,25.62
2018-07-23T18:38:14.620Z,25.58
2018-07-23T18:40:40.869Z,25.47
2018-07-23T18:43:07.193Z,25.25
2018-07-23T18:45:33.499Z,25.11
2018-07-23T18:47:59.811Z,25.01
2018-07-23T18:50:26.138Z,24.99
2018-07-23T18:52:52.466Z,24.91
2018-07-23T18:55:18.783Z,24.99
2018-07-23T18:57:45.107Z,24.98
2018-07-23T19:00:11.456Z,24.92
2018-07-23T19:02:37.827Z,24.89
2018-07-23T19:05:04.150Z,24.95
2018-07-23T19:07:30.494Z,25.07
2018-07-23T19:09:56.819Z,25.15
2018-07-23T19:12:23.124Z,25.19
2018-07-23T19:14:49.455Z,25.30
2018-07-23T19:17:15.787Z,25.25
2018-07-23T19:19:43.692Z,25.22
2018-07-23T19:22:08.407Z,25.20
2018-07-23T19:24:34.734Z,25.18
2018-07-23T19:27:01.092Z,25.06
2018-07-23T19:29:27.405Z,24.95
2018-07-23T19:31:53.724Z,24.88
2018-07-23T19:34:20.063Z,24.82
2018-07-23T19:36:46.381Z,24.80
2018-07-23T19:39:12.717Z,24.78
2018-07-23T19:41:39.082Z,24.72
2018-07-23T19:44:05.403Z,24.65
2018-07-23T19:46:31.722Z,24.70
2018-07-23T19:48:58.025Z,24.83
2018-07-23T19:51:24.399Z,24.85
2018-07-23T19:53:50.738Z,24.86
2018-07-23T19:56:17.066Z,24.82
2018-07-23T19:58:43.402Z,24.76
2018-07-23T20:01:09.709Z,24.78
2018-07-23T20:03:36.021Z,24.71
2018-07-23T20:06:02.351Z,24.49
2018-07-23T20:08:28.668Z,24.30
2018-07-23T20:10:54.982Z,24.12
2018-07-23T20:13:21.311Z,24.02
2018-07-23T20:15:47.653Z,23.94
2018-07-23T20:18:13.969Z,23.85
2018-07-23T20:20:40.302Z,23.81
2018-07-23T20:23:06.632Z,23.70
2018-07-23T20:25:32.946Z,23.57
2018-07-23T20:27:59.274Z,23.49
2018-07-23T20:30:25.603Z,23.62
2018-07-23T20:32:51.959Z,23.82
2018-07-23T20:35:18.317Z,23.95
2018-07-23T20:37:44.634Z,23.95
2018-07-23T20:40:11.024Z,23.97
2018-07-23T20:42:37.273Z,23.96
2018-07-23T20:45:03.640Z,23.98
2018-07-23T20:47:29.952Z,24.02
2018-07-23T20:49:56.282Z,24.03
2018-07-23T20:52:22.593Z,24.08
2018-07-23T20:54:48.960Z,24.11
2018-07-23T20:57:15.281Z,24.15
2018-07-23T20:59:41.603Z,24.20
2018-07-23T21:02:07.916Z,24.14
2018-07-23T21:04:34.221Z,24.05
2018-07-23T21:07:00.539Z,23.99
2018-07-23T21:09:26.853Z,23.85
2018-07-23T21:11:53.169Z,23.81
2018-07-23T21:14:19.502Z,23.75
2018-07-23T21:16:45.839Z,23.71
2018-07-23T21:19:12.158Z,23.76
2018-07-23T21:21:38.471Z,23.82
2018-07-23T21:24:04.791Z,23.85
2018-07-23T21:26:31.107Z,23.88
2018-07-23T21:28:57.463Z,23.90
2018-07-23T21:31:23.779Z,23.83
2018-07-23T21:33:50.090Z,23.72
2018-07-23T21:36:16.417Z,23.63
2018-07-23T21:38:42.735Z,23.67
2018-07-23T21:41:09.059Z,23.70
2018-07-23T21:43:35.373Z,23.69
2018-07-23T21:46:01.681Z,23.75
2018-07-23T21:48:28.026Z,23.78
2018-07-23T21:50:54.308Z,23.80
2018-07-23T21:53:20.661Z,23.79
2018-07-23T21:55:46.971Z,23.76
2018-07-23T21:58:13.321Z,23.74
2018-07-23T22:00:39.699Z,23.68
2018-07-23T22:03:05.953Z,23.68
2018-07-23T22:05:32.309Z,23.70
2018-07-23T22:07:58.631Z,23.70
2018-07-23T22:10:24.948Z,23.68
2018-07-23T22:12:51.276Z,23.69
2018-07-23T22:15:17.588Z,23.70
2018-07-23T22:17:43.904Z,23.70
2018-07-23T22:20:10.260Z,23.74
2018-07-23T22:22:36.572Z,23.74
2018-07-23T22:25:02.881Z,23.70
2018-07-23T22:27:29.232Z,23.61
2018-07-23T22:29:55.543Z,23.58
2018-07-23T22:32:21.893Z,23.69
2018-07-23T22:34:48.210Z,23.72
2018-07-23T22:37:14.523Z,23.76
2018-07-23T22:39:40.833Z,23.77
2018-07-23T22:42:07.192Z,23.77
2018-07-23T22:44:33.461Z,23.78
2018-07-23T22:46:59.773Z,23.85
2018-07-23T22:49:26.086Z,23.86
2018-07-23T22:51:52.399Z,23.86
2018-07-23T22:54:18.712Z,23.84
2018-07-23T22:56:45.022Z,23.84
2018-07-23T22:59:11.352Z,23.91
2018-07-23T23:01:37.669Z,24.00
2018-07-23T23:04:03.978Z,24.04
2018-07-23T23:06:30.298Z,24.08
2018-07-23T23:08:56.653Z,24.10
2018-07-23T23:11:22.966Z,24.07
2018-07-23T23:13:49.279Z,24.13
2018-07-23T23:16:15.594Z,24.27
2018-07-23T23:18:41.917Z,24.31
2018-07-23T23:21:08.282Z,24.33
2018-07-23T23:23:34.599Z,24.32
2018-07-23T23:26:00.916Z,24.24
2018-07-23T23:28:27.235Z,24.17
2018-07-23T23:30:53.551Z,24.29
2018-07-23T23:33:19.872Z,24.40
2018-07-23T23:35:46.184Z,24.37
2018-07-23T23:38:12.500Z,24.44
2018-07-23T23:40:38.822Z,24.52
2018-07-23T23:43:05.131Z,24.57
2018-07-23T23:45:31.436Z,24.58
2018-07-23T23:47:57.752Z,24.66
2018-07-23T23:50:24.060Z,24.73
2018-07-23T23:52:50.367Z,24.74
2018-07-23T23:55:16.679Z,24.80
2018-07-23T23:57:42.986Z,24.86
